Time;durP1;ratioP1;P1;durP2;ratioP2;P2;SDS_P1;SDS_P2;PMS_P1;PMS_P2;Temp;Humidity;BMP_temperature;BMP_pressure;BME280_temperature;BME280_humidity;BME280_pressure;Samples;Min_cycle;Max_cycle;Signal;HPM_P1;HPM_P2
2022/11/03 00:00:23;;;;;;;10.07;4.60;;;;;;;5.64;96.81;101614.81;5016739;28;20475;-73
2022/11/03 00:02:49;;;;;;;5.80;2.90;;;;;;;5.67;96.91;101616.22;5017081;28;20452;-74
2022/11/03 00:08:01;;;;;;;8.20;2.87;;;;;;;5.65;96.96;101618.31;5016849;28;20407;-74
2022/11/03 00:10:28;;;;;;;7.33;2.73;;;;;;;5.68;96.64;101607.91;5016776;28;20498;-73
2022/11/03 00:12:54;;;;;;;9.70;3.50;;;;;;;5.79;95.76;101607.00;5016699;28;20436;-74
2022/11/03 00:15:23;;;;;;;8.67;3.63;;;;;;;5.74;95.50;101604.22;5016531;28;20442;-73
2022/11/03 00:17:49;;;;;;;12.87;3.47;;;;;;;5.65;93.82;101600.31;5016710;28;20514;-73
2022/11/03 00:20:16;;;;;;;7.30;3.20;;;;;;;5.51;92.92;101599.00;5016200;28;20856;-73
2022/11/03 00:22:42;;;;;;;8.77;3.00;;;;;;;5.42;93.30;101593.19;5016569;28;20455;-73
2022/11/03 00:25:09;;;;;;;15.60;3.40;;;;;;;5.39;93.55;101587.50;5016360;28;20452;-73
2022/11/03 00:27:36;;;;;;;10.43;2.73;;;;;;;5.29;94.31;101594.31;5016375;28;20450;-73
2022/11/03 00:30:02;;;;;;;6.90;2.87;;;;;;;5.25;94.46;101595.84;5016219;28;20468;-74
2022/11/03 00:32:30;;;;;;;7.63;3.20;;;;;;;5.12;94.33;101596.13;5016009;28;20962;-73
2022/11/03 00:34:57;;;;;;;6.40;3.00;;;;;;;5.26;94.56;101596.66;5016223;28;20446;-74
2022/11/03 00:37:23;;;;;;;7.80;2.60;;;;;;;5.30;95.04;101587.06;5016452;28;20447;-73
2022/11/03 00:39:50;;;;;;;7.47;3.03;;;;;;;5.40;95.13;101579.22;5015961;28;20494;-73
2022/11/03 00:42:16;;;;;;;7.10;3.03;;;;;;;5.41;95.26;101580.03;5016361;28;20531;-73
2022/11/03 00:44:43;;;;;;;6.20;2.63;;;;;;;5.40;95.99;101581.06;5016161;28;20810;-73
2022/11/03 00:47:09;;;;;;;7.90;3.10;;;;;;;5.27;96.64;101566.91;5015616;28;20802;-73
2022/11/03 00:49:37;;;;;;;6.17;2.67;;;;;;;5.36;96.14;101571.84;5015939;28;20532;-73
2022/11/03 00:52:04;;;;;;;8.07;2.60;;;;;;;5.22;97.12;101582.91;5015890;28;20458;-74
2022/11/03 00:54:30;;;;;;;7.97;2.97;;;;;;;5.20;97.59;101574.28;5015909;28;20490;-73
2022/11/03 00:56:57;;;;;;;6.30;2.53;;;;;;;5.22;96.97;101566.81;5015891;28;20444;-73
2022/11/03 00:59:23;;;;;;;6.87;3.00;;;;;;;5.17;98.16;101563.19;5015686;28;20836;-73
2022/11/03 01:01:50;;;;;;;6.57;2.60;;;;;;;5.23;97.77;101563.06;5015822;28;20464;-73
2022/11/03 01:07:05;;;;;;;6.70;3.27;;;;;;;5.37;96.60;101558.19;5015545;28;20898;-74
2022/11/03 01:09:35;;;;;;;6.40;3.10;;;;;;;5.37;96.42;101560.06;5015413;28;21001;-73
2022/11/03 01:12:05;;;;;;;7.50;2.77;;;;;;;5.28;95.95;101565.81;5015647;28;20519;-73
2022/11/03 01:14:33;;;;;;;6.47;2.90;;;;;;;5.23;93.22;101562.25;5015916;28;20448;-73
2022/11/03 01:17:00;;;;;;;9.07;3.50;;;;;;;5.10;94.16;101566.03;5015501;28;20462;-73
2022/11/03 01:19:27;;;;;;;5.53;1.97;;;;;;;4.89;94.87;101562.13;5015368;28;20466;-74
2022/11/03 01:21:54;;;;;;;9.67;3.00;;;;;;;4.95;93.96;101560.34;5015331;28;20450;-74
2022/11/03 01:24:22;;;;;;;8.63;3.20;;;;;;;4.87;95.38;101560.72;5015107;28;20437;-73
2022/11/03 01:26:49;;;;;;;6.60;2.60;;;;;;;4.88;96.08;101562.38;5015357;28;20440;-73
2022/11/03 01:29:16;;;;;;;5.23;2.43;;;;;;;5.01;95.99;101554.06;5015152;28;20464;-73
2022/11/03 01:31:43;;;;;;;5.20;1.80;;;;;;;5.00;96.81;101569.34;5015201;28;20455;-73
2022/11/03 01:34:13;;;;;;;5.57;2.30;;;;;;;5.05;96.99;101571.31;5015103;28;20467;-74
2022/11/03 01:36:40;;;;;;;7.63;2.97;;;;;;;5.07;96.32;101569.19;5015233;28;20436;-73
2022/11/03 01:39:06;;;;;;;7.10;2.63;;;;;;;5.05;96.23;101566.75;5015140;28;20460;-74
2022/11/03 01:41:34;;;;;;;6.00;2.90;;;;;;;5.11;96.57;101559.59;5014750;28;20851;-73
2022/11/03 01:44:34;;;;;;;5.70;2.00;;;;;;;5.17;95.97;101553.25;5014978;28;20450;-73
2022/11/03 01:47:16;;;;;;;5.40;2.30;;;;;;;5.17;95.13;101550.56;4954513;29;20455;-73
2022/11/03 01:49:48;;;;;;;6.63;3.00;;;;;;;5.12;94.01;101533.56;5007982;28;20491;-73
2022/11/03 01:52:19;;;;;;;6.57;3.00;;;;;;;4.96;94.08;101527.94;5015005;28;20431;-74
2022/11/03 01:54:50;;;;;;;6.47;2.50;;;;;;;4.89;94.14;101529.13;5014594;28;20960;-74
2022/11/03 01:57:23;;;;;;;5.50;2.30;;;;;;;4.77;93.77;101521.09;5014763;28;20432;-73
2022/11/03 01:59:51;;;;;;;6.37;2.57;;;;;;;4.84;93.82;101520.97;5014044;28;20983;-74
2022/11/03 02:02:17;;;;;;;6.50;2.97;;;;;;;4.90;94.22;101520.00;5015054;28;20807;-73
2022/11/03 02:04:45;;;;;;;6.33;2.33;;;;;;;4.95;94.36;101510.16;5014766;28;20516;-73
2022/11/03 02:07:22;;;;;;;6.27;2.17;;;;;;;4.96;95.71;101519.88;5014582;28;20463;-73
2022/11/03 02:09:49;;;;;;;6.50;2.03;;;;;;;5.08;95.69;101522.47;5014519;28;20471;-74
2022/11/03 02:12:19;;;;;;;6.07;2.40;;;;;;;5.18;97.85;101517.31;5014635;28;20466;-74
2022/11/03 02:14:55;;;;;;;7.07;2.23;;;;;;;5.24;99.32;101510.97;5015067;28;20436;-73
2022/11/03 02:17:23;;;;;;;6.50;2.37;;;;;;;5.36;99.86;101513.59;5014756;28;20435;-74
2022/11/03 02:19:56;;;;;;;8.57;3.00;;;;;;;5.51;100.00;101518.38;5014309;28;20544;-74
2022/11/03 02:22:48;;;;;;;8.63;2.10;;;;;;;5.50;100.00;101519.44;5014649;28;20467;-74
2022/11/03 02:25:28;;;;;;;8.90;2.50;;;;;;;5.58;100.00;101513.69;5014193;28;20444;-74
2022/11/03 02:27:55;;;;;;;5.30;2.13;;;;;;;5.68;100.00;101513.84;5014241;28;20865;-74
2022/11/03 02:30:21;;;;;;;5.43;1.90;;;;;;;5.70;100.00;101511.69;5013777;28;20814;-73
2022/11/03 02:32:56;;;;;;;8.27;2.23;;;;;;;5.74;100.00;101518.22;5014133;28;20444;-74
2022/11/03 02:35:28;;;;;;;5.60;1.93;;;;;;;5.74;100.00;101514.72;5014080;28;20443;-73
2022/11/03 02:37:59;;;;;;;7.60;2.57;;;;;;;5.77;100.00;101506.16;5014066;28;20424;-74
2022/11/03 02:40:31;;;;;;;5.83;2.30;;;;;;;5.92;100.00;101516.34;5013747;28;21010;-73
2022/11/03 02:42:59;;;;;;;5.47;1.60;;;;;;;6.06;100.00;101514.94;5013960;28;20448;-73
2022/11/03 02:45:27;;;;;;;10.27;2.63;;;;;;;6.22;100.00;101516.78;5014076;28;20452;-74
2022/11/03 02:47:58;;;;;;;10.43;1.40;;;;;;;6.37;100.00;101512.66;5013851;28;20805;-74
2022/11/03 02:50:27;;;;;;;7.13;2.00;;;;;;;6.49;100.00;101505.28;5013769;28;21007;-74
2022/11/03 02:52:54;;;;;;;5.27;1.90;;;;;;;6.56;100.00;101500.53;5013687;28;20460;-74
2022/11/03 02:55:27;;;;;;;5.87;2.40;;;;;;;6.60;100.00;101496.28;5013848;28;20450;-74
2022/11/03 02:58:00;;;;;;;7.77;2.23;;;;;;;6.64;100.00;101494.72;5013397;28;20907;-71
2022/11/03 03:00:30;;;;;;;5.23;2.17;;;;;;;6.71;100.00;101492.63;5013658;28;20483;-74
2022/11/03 03:03:02;;;;;;;8.13;2.10;;;;;;;6.79;100.00;101491.38;5013835;28;20445;-75
2022/11/03 03:05:34;;;;;;;5.53;2.23;;;;;;;6.83;100.00;101489.78;5014005;28;20448;-74
2022/11/03 03:08:05;;;;;;;5.33;1.93;;;;;;;6.89;100.00;101487.97;5013748;28;20523;-75
2022/11/03 03:10:36;;;;;;;5.13;1.90;;;;;;;6.98;100.00;101495.31;5013085;28;20468;-74
2022/11/03 03:13:07;;;;;;;4.50;1.47;;;;;;;7.00;100.00;101495.91;5013843;28;20436;-74
2022/11/03 03:15:41;;;;;;;5.30;1.60;;;;;;;7.05;100.00;101484.34;5013461;28;20978;-74
2022/11/03 03:18:20;;;;;;;5.20;1.57;;;;;;;7.11;100.00;101485.22;5013502;28;20447;-74
2022/11/03 03:20:55;;;;;;;4.87;1.63;;;;;;;7.15;100.00;101480.94;5013631;28;20468;-73
2022/11/03 03:23:26;;;;;;;6.70;2.47;;;;;;;7.17;100.00;101479.63;5013384;28;20911;-74
2022/11/03 03:25:58;;;;;;;5.43;2.20;;;;;;;7.14;100.00;101474.75;5013591;28;20567;-75
2022/11/03 03:28:32;;;;;;;5.37;2.43;;;;;;;7.16;100.00;101475.28;5013289;28;20916;-75
2022/11/03 03:31:01;;;;;;;5.27;2.00;;;;;;;7.14;100.00;101484.72;5013348;28;20434;-74
2022/11/03 03:33:29;;;;;;;5.60;2.10;;;;;;;7.16;100.00;101472.59;5013318;28;20444;-73
2022/11/03 03:35:59;;;;;;;13.90;1.83;;;;;;;7.20;100.00;101479.09;5013512;28;20822;-74
2022/11/03 03:38:30;;;;;;;11.80;2.07;;;;;;;7.17;100.00;101471.53;5013229;28;20952;-74
2022/11/03 03:41:00;;;;;;;5.27;1.87;;;;;;;7.13;100.00;101473.13;5013190;28;20480;-74
2022/11/03 03:43:29;;;;;;;9.00;2.27;;;;;;;7.11;99.56;101474.44;5013356;28;20463;-74
2022/11/03 03:46:00;;;;;;;4.83;1.70;;;;;;;7.12;99.06;101476.84;5013243;28;20451;-74
2022/11/03 03:48:27;;;;;;;6.63;2.30;;;;;;;7.06;98.01;101467.13;5013334;28;20421;-74
2022/11/03 03:50:54;;;;;;;4.77;1.47;;;;;;;7.03;98.11;101463.03;5013449;28;20431;-74
2022/11/03 03:53:20;;;;;;;6.20;2.43;;;;;;;6.96;97.50;101459.75;5013332;28;20511;-73
2022/11/03 03:55:50;;;;;;;5.90;1.90;;;;;;;6.86;97.93;101462.34;5013293;28;20965;-73
2022/11/03 03:58:17;;;;;;;7.47;1.30;;;;;;;6.86;97.73;101459.66;5013186;28;20440;-74
2022/11/03 04:00:45;;;;;;;9.53;2.67;;;;;;;6.87;98.27;101460.47;5013066;28;20490;-74
2022/11/03 04:03:16;;;;;;;5.13;2.00;;;;;;;6.87;99.77;101468.56;5013125;28;20454;-74
2022/11/03 04:05:42;;;;;;;6.70;2.30;;;;;;;6.89;100.00;101464.53;5013076;28;20452;-74
2022/11/03 04:08:09;;;;;;;6.53;2.30;;;;;;;6.94;100.00;101463.75;5013093;28;20530;-74
2022/11/03 04:10:36;;;;;;;5.47;2.00;;;;;;;7.00;100.00;101462.75;5012822;28;20474;-74
2022/11/03 04:24:00;;;;;;;6.23;1.63;;;;;;;6.95;100.00;101439.28;5016560;28;20450;-73
2022/11/03 04:26:27;;;;;;;5.83;2.60;;;;;;;6.95;100.00;101438.44;5016327;28;20947;-74
2022/11/03 04:28:55;;;;;;;9.87;2.00;;;;;;;6.99;100.00;101437.69;5016443;28;20464;-75
2022/11/03 04:31:23;;;;;;;8.37;2.40;;;;;;;6.93;100.00;101440.59;5016499;28;20947;-74
2022/11/03 04:33:50;;;;;;;6.73;2.33;;;;;;;7.00;100.00;101433.94;5016579;28;20440;-74
2022/11/03 04:36:20;;;;;;;6.03;2.03;;;;;;;7.06;100.00;101432.09;5016386;28;20452;-74
2022/11/03 04:38:47;;;;;;;5.97;2.10;;;;;;;7.02;100.00;101426.41;5016317;28;20464;-74
2022/11/03 04:41:16;;;;;;;7.53;2.10;;;;;;;7.04;99.17;101424.28;5016430;28;20485;-74
2022/11/03 04:43:44;;;;;;;6.37;2.20;;;;;;;6.97;98.83;101417.47;5016509;28;20850;-73
2022/11/03 04:46:12;;;;;;;8.20;2.10;;;;;;;6.96;98.43;101418.56;5015984;28;20534;-75
2022/11/03 04:48:40;;;;;;;6.80;1.77;;;;;;;6.98;98.19;101419.09;5015991;28;21014;-74
2022/11/03 04:51:14;;;;;;;5.20;1.67;;;;;;;6.93;97.64;101416.38;5024513;23;20500;-68
2022/11/03 04:53:48;;;;;;;5.83;2.47;;;;;;;6.91;98.09;101410.44;4996378;28;20814;-68
2022/11/03 04:56:18;;;;;;;9.30;2.13;;;;;;;6.94;98.14;101409.91;4996612;28;20417;-68
2022/11/03 04:58:46;;;;;;;7.57;2.30;;;;;;;6.96;98.91;101405.09;4996516;28;20437;-68
2022/11/03 05:01:15;;;;;;;8.30;2.13;;;;;;;6.96;99.71;101413.97;4996056;28;20484;-69
2022/11/03 05:03:46;;;;;;;6.03;1.77;;;;;;;7.01;99.86;101411.31;4995119;28;20449;-68
2022/11/03 05:06:15;;;;;;;6.40;2.10;;;;;;;6.98;100.00;101413.72;4996275;28;20442;-68
2022/11/03 05:08:44;;;;;;;7.37;2.47;;;;;;;7.00;100.00;101393.53;4996199;28;20441;-68
2022/11/03 05:11:19;;;;;;;8.37;2.37;;;;;;;7.05;100.00;101392.78;4996032;28;20473;-68
2022/11/03 05:13:46;;;;;;;8.33;2.40;;;;;;;7.09;100.00;101385.81;4995994;28;20441;-68
2022/11/03 05:16:12;;;;;;;10.63;2.50;;;;;;;7.13;100.00;101391.47;4996170;28;20824;-69
2022/11/03 05:18:42;;;;;;;12.30;2.70;;;;;;;7.10;100.00;101373.94;4996209;28;20453;-69
2022/11/03 05:21:13;;;;;;;7.40;2.77;;;;;;;7.06;100.00;101370.16;4995852;28;20990;-68
2022/11/03 05:23:44;;;;;;;4.87;1.83;;;;;;;7.08;100.00;101365.28;4996098;28;20437;-68
2022/11/03 05:26:16;;;;;;;7.53;2.43;;;;;;;7.07;100.00;101369.06;4996011;28;20472;-68
2022/11/03 05:28:46;;;;;;;5.20;1.87;;;;;;;7.06;99.99;101367.44;4996079;28;20437;-68
2022/11/03 05:31:22;;;;;;;6.07;2.07;;;;;;;7.04;99.74;101348.88;4995443;28;20472;-68
2022/11/03 05:33:51;;;;;;;5.37;2.00;;;;;;;6.98;99.31;101357.97;4994780;28;20437;-68
2022/11/03 05:36:22;;;;;;;11.43;2.37;;;;;;;6.95;99.51;101350.41;4995720;28;20463;-68
2022/11/03 05:38:49;;;;;;;8.20;2.47;;;;;;;7.00;100.00;101349.63;4995788;28;20456;-68
2022/11/03 05:41:21;;;;;;;5.37;2.10;;;;;;;7.05;100.00;101353.19;4995348;28;20485;-68
2022/11/03 05:43:56;;;;;;;5.53;1.47;;;;;;;7.08;100.00;101358.06;4995669;28;20425;-68
2022/11/03 05:46:23;;;;;;;6.27;2.57;;;;;;;7.14;100.00;101361.59;4995564;28;20468;-68
2022/11/03 05:48:50;;;;;;;6.20;2.37;;;;;;;7.21;100.00;101356.78;4995090;28;20972;-69
2022/11/03 05:51:22;;;;;;;5.73;2.03;;;;;;;7.30;100.00;101362.50;4995077;28;20491;-67
2022/11/03 05:53:51;;;;;;;6.10;1.70;;;;;;;7.29;100.00;101353.59;4995434;28;20497;-68
2022/11/03 05:56:19;;;;;;;6.50;1.87;;;;;;;7.32;100.00;101363.88;4995498;28;20450;-68
2022/11/03 05:58:48;;;;;;;4.40;1.53;;;;;;;7.39;100.00;101365.50;4995275;28;20511;-68
2022/11/03 06:01:20;;;;;;;6.30;2.23;;;;;;;7.36;100.00;101366.84;4994943;28;20971;-68
2022/11/03 06:03:47;;;;;;;12.20;1.73;;;;;;;7.37;100.00;101371.16;4995187;28;20933;-69
2022/11/03 06:06:20;;;;;;;5.93;2.10;;;;;;;7.42;100.00;101375.78;4995149;28;20820;-69
2022/11/03 06:08:48;;;;;;;5.90;1.60;;;;;;;7.34;99.34;101371.69;4995169;28;20443;-68
2022/11/03 06:11:23;;;;;;;5.80;2.00;;;;;;;7.28;98.69;101373.53;4994993;28;20469;-68
2022/11/03 06:13:49;;;;;;;6.00;2.20;;;;;;;7.21;98.04;101374.81;4995014;28;20516;-68
2022/11/03 06:16:35;;;;;;;9.20;1.90;;;;;;;7.22;97.29;101379.97;4995018;28;20441;-68
2022/11/03 06:19:12;;;;;;;6.97;1.53;;;;;;;7.11;98.27;101390.91;4994710;28;20461;-69
2022/11/03 06:21:39;;;;;;;5.87;2.23;;;;;;;7.11;97.82;101386.34;4994788;28;20468;-68
2022/11/03 06:24:09;;;;;;;6.80;2.17;;;;;;;7.07;97.36;101385.22;4994661;28;20520;-68
2022/11/03 06:26:36;;;;;;;4.93;1.73;;;;;;;7.04;97.76;101372.31;4994523;28;20901;-68
2022/11/03 06:29:02;;;;;;;6.07;2.03;;;;;;;7.08;98.35;101373.38;4994625;28;20993;-68
2022/11/03 06:31:32;;;;;;;5.90;2.13;;;;;;;7.13;98.86;101370.75;4994548;28;20476;-68
2022/11/03 06:33:59;;;;;;;4.83;2.03;;;;;;;7.15;99.32;101370.47;4994599;28;20445;-68
2022/11/03 06:36:31;;;;;;;11.20;3.50;;;;;;;7.15;99.71;101362.41;4994756;28;20441;-68
2022/11/03 06:39:02;;;;;;;16.10;5.17;;;;;;;7.18;100.00;101364.59;4994516;28;20434;-68
2022/11/03 06:41:32;;;;;;;11.10;4.13;;;;;;;7.17;100.00;101362.94;4994203;28;20511;-68
2022/11/03 06:44:02;;;;;;;13.50;3.20;;;;;;;7.23;100.00;101359.22;4994445;28;20453;-69
2022/11/03 06:46:30;;;;;;;7.47;2.63;;;;;;;7.27;100.00;101361.13;4994547;28;20441;-68
2022/11/03 06:49:00;;;;;;;6.50;2.50;;;;;;;7.29;100.00;101356.28;4994339;28;20447;-69
2022/11/03 06:51:28;;;;;;;7.53;2.20;;;;;;;7.34;100.00;101356.31;4994081;28;21026;-69
2022/11/03 06:53:58;;;;;;;5.57;2.03;;;;;;;7.34;100.00;101356.31;4994177;28;20453;-69
2022/11/03 06:56:28;;;;;;;21.27;2.10;;;;;;;7.34;100.00;101355.50;4994777;28;20441;-69
2022/11/03 06:58:57;;;;;;;4.63;1.77;;;;;;;7.27;100.00;101349.56;4994254;28;20448;-69
2022/11/03 07:01:26;;;;;;;19.60;2.60;;;;;;;7.32;100.00;101357.66;4993778;28;20867;-69
2022/11/03 07:04:00;;;;;;;5.43;1.70;;;;;;;7.34;98.86;101350.94;4994142;28;20447;-69
2022/11/03 07:06:30;;;;;;;8.87;2.53;;;;;;;7.37;98.53;101360.38;4994346;28;20480;-69
2022/11/03 07:08:59;;;;;;;9.90;2.60;;;;;;;7.45;98.38;101356.41;4994327;28;20539;-69
2022/11/03 07:11:28;;;;;;;5.83;2.20;;;;;;;7.38;98.94;101351.22;4994134;28;20468;-69
2022/11/03 07:13:57;;;;;;;6.77;2.03;;;;;;;7.51;99.20;101358.03;4993933;28;20445;-69
2022/11/03 07:16:29;;;;;;;7.03;2.67;;;;;;;7.62;99.82;101361.63;4993737;28;20436;-69
2022/11/03 07:18:59;;;;;;;7.53;2.33;;;;;;;7.68;99.52;101361.38;4993785;28;20803;-69
2022/11/03 07:21:33;;;;;;;7.20;2.57;;;;;;;7.73;99.88;101355.19;4993957;28;20489;-68
2022/11/03 07:24:01;;;;;;;6.67;2.00;;;;;;;7.80;99.74;101359.28;4993940;28;20431;-69
2022/11/03 07:26:28;;;;;;;6.93;2.10;;;;;;;7.89;99.31;101356.06;4993999;28;20453;-71
2022/11/03 07:28:56;;;;;;;7.43;2.30;;;;;;;7.96;98.91;101359.31;4993768;28;20451;-70
2022/11/03 07:31:25;;;;;;;9.50;2.23;;;;;;;8.02;99.38;101355.59;4993682;28;20465;-69
2022/11/03 07:33:56;;;;;;;8.87;2.67;;;;;;;8.08;99.21;101354.50;4993804;28;20448;-69
2022/11/03 07:36:25;;;;;;;6.03;2.00;;;;;;;8.17;98.28;101361.00;4993778;28;20429;-69
2022/11/03 07:38:55;;;;;;;6.03;2.37;;;;;;;8.28;98.53;101365.38;4993687;28;20445;-69
2022/11/03 07:41:24;;;;;;;11.30;2.53;;;;;;;8.35;97.73;101357.81;4993537;28;20831;-70
2022/11/03 07:43:56;;;;;;;7.00;1.93;;;;;;;8.46;96.91;101357.88;4993592;28;20446;-69
2022/11/03 07:46:24;;;;;;;5.53;1.97;;;;;;;8.47;96.77;101346.00;4993777;28;20463;-69
2022/11/03 07:48:54;;;;;;;6.87;2.13;;;;;;;8.48;95.67;101344.91;4993627;28;20452;-69
2022/11/03 07:51:23;;;;;;;6.43;2.20;;;;;;;8.46;94.31;101336.28;4993530;28;20495;-69
2022/11/03 07:53:52;;;;;;;8.53;2.33;;;;;;;8.44;94.59;101335.72;4993757;28;20449;-69
2022/11/03 07:56:20;;;;;;;8.73;2.20;;;;;;;8.47;93.72;101324.41;4993803;28;20453;-68
2022/11/03 07:58:48;;;;;;;6.50;2.37;;;;;;;8.45;93.72;101313.06;4997561;28;20444;-69
2022/11/03 08:01:40;;;;;;;6.10;2.77;;;;;;;8.44;93.86;101312.25;4997166;28;20464;-68
2022/11/03 08:04:09;;;;;;;5.83;2.20;;;;;;;8.51;94.55;101314.69;4992516;28;20445;-69
2022/11/03 08:06:36;;;;;;;6.30;2.00;;;;;;;8.56;95.22;101306.59;4997428;28;20820;-69
2022/11/03 08:09:03;;;;;;;9.63;2.00;;;;;;;8.60;95.10;101307.69;4997341;28;20437;-69
2022/11/03 08:11:29;;;;;;;7.67;1.70;;;;;;;8.63;95.21;101307.13;4997326;28;20476;-69
2022/11/03 08:13:56;;;;;;;10.43;2.53;;;;;;;8.68;94.39;101303.63;4997064;28;20535;-69
2022/11/03 08:16:23;;;;;;;8.07;2.07;;;;;;;8.80;94.17;101299.56;4997081;28;20917;-69
2022/11/03 08:18:51;;;;;;;5.20;1.90;;;;;;;8.87;92.49;101296.59;4997082;28;20964;-69
2022/11/03 08:21:17;;;;;;;4.93;1.80;;;;;;;8.91;93.22;101296.84;4996611;28;20992;-69
2022/11/03 08:23:44;;;;;;;7.30;2.83;;;;;;;8.92;93.12;101284.97;4996903;28;20452;-69
2022/11/03 08:26:10;;;;;;;9.27;2.23;;;;;;;9.02;92.36;101284.94;4997096;28;20789;-68
2022/11/03 08:28:37;;;;;;;6.60;2.30;;;;;;;9.12;91.00;101284.94;4997073;28;20447;-68
2022/11/03 08:31:04;;;;;;;6.77;2.67;;;;;;;9.15;90.94;101276.25;4996998;28;20464;-68
2022/11/03 08:33:31;;;;;;;5.90;2.20;;;;;;;9.19;91.24;101277.34;4996826;28;20489;-68
2022/11/03 08:35:59;;;;;;;7.37;2.33;;;;;;;9.12;91.33;101276.00;4996584;28;20456;-68
2022/11/03 08:38:26;;;;;;;16.73;2.30;;;;;;;9.17;91.52;101276.00;4996477;28;20820;-68
2022/11/03 08:40:52;;;;;;;5.53;1.80;;;;;;;9.28;90.46;101264.88;4996758;28;20476;-69
2022/11/03 08:43:19;;;;;;;6.03;1.80;;;;;;;9.36;89.80;101258.09;4996636;28;20574;-68
2022/11/03 08:45:45;;;;;;;9.03;2.40;;;;;;;9.45;89.17;101259.13;4996669;28;20447;-68
2022/11/03 08:48:12;;;;;;;18.70;2.17;;;;;;;9.47;89.69;101248.84;4996661;28;20440;-68
2022/11/03 08:50:39;;;;;;;6.57;1.80;;;;;;;9.55;89.59;101252.88;4996395;28;20473;-69
2022/11/03 08:53:07;;;;;;;6.00;2.00;;;;;;;9.65;88.12;101246.59;4996682;28;20853;-69
2022/11/03 08:55:33;;;;;;;9.70;2.70;;;;;;;9.72;87.29;101252.53;4996526;28;20449;-68
2022/11/03 08:57:59;;;;;;;22.27;2.60;;;;;;;9.80;87.21;101246.53;4996425;28;20448;-69
2022/11/03 09:00:26;;;;;;;13.20;2.03;;;;;;;9.91;85.61;101236.44;4996372;28;20465;-69
2022/11/03 09:02:52;;;;;;;5.80;2.30;;;;;;;10.03;85.71;101239.63;4996459;28;20484;-69
2022/11/03 09:05:19;;;;;;;14.00;2.40;;;;;;;10.12;86.01;101235.22;4996396;28;20445;-68
2022/11/03 09:07:45;;;;;;;6.57;1.63;;;;;;;10.19;86.19;101230.31;4995570;28;20441;-69
2022/11/03 09:10:13;;;;;;;7.17;1.93;;;;;;;10.31;85.94;101227.25;4995570;28;20461;-69
2022/11/03 09:12:39;;;;;;;4.93;1.77;;;;;;;10.37;84.88;101223.44;4996258;28;20439;-68
2022/11/03 09:15:07;;;;;;;5.20;1.70;;;;;;;10.47;83.65;101222.53;4996158;28;20449;-69
2022/11/03 09:17:33;;;;;;;7.20;2.27;;;;;;;10.57;82.59;101219.72;4996203;28;20441;-69
2022/11/03 09:20:00;;;;;;;7.33;1.50;;;;;;;10.67;82.48;101216.09;4996004;28;20469;-69
2022/11/03 09:22:26;;;;;;;4.67;1.67;;;;;;;10.73;82.76;101204.94;4996031;28;20488;-69
2022/11/03 09:24:53;;;;;;;8.93;1.83;;;;;;;10.78;82.37;101198.66;4996027;28;20503;-68
2022/11/03 09:27:21;;;;;;;6.37;1.90;;;;;;;10.87;82.16;101205.06;4995852;28;20449;-68
2022/11/03 09:29:47;;;;;;;4.40;1.20;;;;;;;10.93;81.77;101201.19;4995868;28;20461;-67
2022/11/03 09:32:14;;;;;;;5.77;1.47;;;;;;;11.08;81.32;101195.63;4995552;28;20862;-69
2022/11/03 09:34:41;;;;;;;10.17;2.20;;;;;;;11.16;81.09;101191.47;4995788;28;20449;-69
2022/11/03 09:37:07;;;;;;;5.40;1.63;;;;;;;11.19;79.42;101188.16;4995753;28;20503;-69
2022/11/03 09:39:34;;;;;;;7.23;1.67;;;;;;;11.18;79.00;101194.69;4995743;28;20545;-69
2022/11/03 09:42:02;;;;;;;6.57;1.60;;;;;;;11.27;79.28;101190.22;4995252;28;20484;-69
2022/11/03 09:44:33;;;;;;;5.60;1.60;;;;;;;11.35;79.25;101188.78;4995617;28;20543;-68
2022/11/03 09:46:59;;;;;;;6.13;1.40;;;;;;;11.45;78.60;101185.13;4995228;28;20913;-69
2022/11/03 09:49:28;;;;;;;4.43;1.50;;;;;;;11.59;78.66;101183.28;4995278;28;20444;-68
2022/11/03 09:51:55;;;;;;;5.27;1.27;;;;;;;11.68;78.45;101173.38;4995195;28;20425;-68
2022/11/03 09:54:22;;;;;;;6.37;1.37;;;;;;;11.83;77.79;101169.69;4995506;28;20444;-68
2022/11/03 09:56:48;;;;;;;5.60;1.53;;;;;;;11.95;78.67;101161.88;4995019;28;20826;-68
2022/11/03 09:59:16;;;;;;;6.13;1.87;;;;;;;11.98;76.89;101166.72;4995183;28;20441;-68
2022/11/03 10:01:48;;;;;;;9.03;2.50;;;;;;;12.08;76.11;101160.31;4994945;28;20440;-69
2022/11/03 10:04:15;;;;;;;4.30;1.20;;;;;;;12.22;75.48;101150.31;4995064;28;20441;-68
2022/11/03 10:06:42;;;;;;;5.17;1.70;;;;;;;12.28;75.65;101151.03;4995132;28;20863;-68
2022/11/03 10:09:14;;;;;;;5.77;1.80;;;;;;;12.42;74.10;101153.78;4995202;28;20492;-68
2022/11/03 10:11:41;;;;;;;4.60;1.17;;;;;;;12.43;74.82;101148.03;4995152;28;20778;-68
2022/11/03 10:14:12;;;;;;;6.50;1.80;;;;;;;12.53;73.59;101141.63;4995025;28;20445;-67
2022/11/03 10:16:40;;;;;;;7.63;1.60;;;;;;;12.65;73.85;101149.28;4995052;28;20461;-68
2022/11/03 10:19:11;;;;;;;8.57;2.00;;;;;;;12.68;72.70;101140.53;4994562;28;20445;-68
2022/11/03 10:21:39;;;;;;;5.40;1.40;;;;;;;12.73;72.97;101126.84;4994860;28;20511;-68
2022/11/03 10:24:05;;;;;;;8.03;1.50;;;;;;;12.79;72.17;101125.63;4994902;28;20568;-69
2022/11/03 10:26:43;;;;;;;4.33;1.27;;;;;;;12.77;72.91;101130.56;4994448;28;20945;-69
2022/11/03 10:29:18;;;;;;;4.40;1.20;;;;;;;12.75;72.15;101117.28;4994846;28;20429;-69
2022/11/03 10:31:48;;;;;;;4.83;1.40;;;;;;;12.76;70.80;101127.03;4994833;28;20459;-69
2022/11/03 10:34:26;;;;;;;4.07;1.23;;;;;;;12.94;71.83;101116.38;4994483;28;20445;-69
2022/11/03 10:37:11;;;;;;;8.47;1.87;;;;;;;12.91;71.92;101112.31;4994703;28;20433;-69
2022/11/03 10:39:38;;;;;;;5.90;1.43;;;;;;;13.02;71.65;101107.50;4994531;28;20461;-69
2022/11/03 10:42:04;;;;;;;6.60;1.57;;;;;;;13.05;70.57;101106.88;4994650;28;20544;-69
2022/11/03 10:44:31;;;;;;;6.30;1.23;;;;;;;13.04;70.40;101095.19;4994448;28;20495;-69
2022/11/03 10:47:00;;;;;;;4.97;1.17;;;;;;;13.10;70.70;101099.41;4994169;28;20449;-69
2022/11/03 10:49:30;;;;;;;5.67;1.13;;;;;;;13.07;70.93;101093.78;4994231;28;20441;-69
2022/11/03 10:52:20;;;;;;;5.03;1.00;;;;;;;13.09;71.41;101086.09;5014243;23;20577;-74
2022/11/03 10:54:47;;;;;;;9.30;1.40;;;;;;;13.21;71.30;101094.56;4974458;28;20457;-74
2022/11/03 10:57:15;;;;;;;3.60;0.90;;;;;;;13.23;69.94;101086.91;4974825;28;20442;-75
2022/11/03 10:59:42;;;;;;;4.30;1.00;;;;;;;13.27;70.04;101082.47;4974560;28;20941;-74
2022/11/03 11:02:17;;;;;;;7.37;1.90;;;;;;;13.33;70.67;101075.00;4974690;28;20537;-75
2022/11/03 11:04:46;;;;;;;5.10;1.30;;;;;;;13.31;70.83;101064.41;4974899;28;20446;-74
2022/11/03 11:07:19;;;;;;;10.40;1.57;;;;;;;13.37;71.08;101070.56;4974820;28;20547;-75
2022/11/03 11:09:46;;;;;;;5.83;1.40;;;;;;;13.44;70.91;101062.75;4974701;28;20446;-75
2022/11/03 11:12:17;;;;;;;6.10;1.03;;;;;;;13.40;69.23;101064.50;4976918;28;20470;-74
2022/11/03 11:14:53;;;;;;;4.80;1.53;;;;;;;13.42;68.78;101058.75;4975933;28;20450;-74
2022/11/03 11:17:45;;;;;;;6.27;1.10;;;;;;;13.35;69.98;101051.81;4974964;28;20953;-75
2022/11/03 11:20:36;;;;;;;5.23;1.60;;;;;;;13.36;70.64;101049.88;4974294;28;20934;-74
2022/11/03 11:23:48;;;;;;;5.70;1.53;;;;;;;13.40;70.44;101041.91;4974298;28;20883;-74
2022/11/03 11:26:29;;;;;;;9.00;1.70;;;;;;;13.32;70.50;101030.66;4974418;28;20457;-75
2022/11/03 11:29:43;;;;;;;7.53;1.40;;;;;;;13.31;70.59;101033.69;4974419;28;20442;-75
2022/11/03 11:32:55;;;;;;;5.13;1.20;;;;;;;13.29;70.56;101030.47;4973612;28;20465;-75
2022/11/03 11:36:05;;;;;;;14.27;1.30;;;;;;;13.18;71.16;101029.88;4915010;29;20520;-75
2022/11/03 11:39:08;;;;;;;4.47;1.17;;;;;;;13.26;71.10;101018.28;4974398;28;20537;-75
2022/11/03 11:42:06;;;;;;;4.73;1.30;;;;;;;13.28;70.47;101017.97;4974199;28;20508;-75
2022/11/03 11:44:57;;;;;;;5.37;1.13;;;;;;;13.31;72.39;101004.56;4973937;28;20564;-74
2022/11/03 11:47:27;;;;;;;4.07;1.13;;;;;;;13.30;71.19;101002.97;4967347;28;20508;-75
2022/11/03 11:50:12;;;;;;;5.47;1.30;;;;;;;13.37;70.37;101000.63;4974074;28;20953;-77
2022/11/03 11:52:43;;;;;;;7.93;1.70;;;;;;;13.42;70.58;100988.81;4974664;28;20488;-76
2022/11/03 11:55:18;;;;;;;4.10;1.07;;;;;;;13.45;72.36;100987.38;4974535;28;20454;-75
2022/11/03 11:57:46;;;;;;;6.93;1.47;;;;;;;13.45;73.08;100976.47;4974213;28;20999;-76
2022/11/03 12:00:21;;;;;;;6.47;2.20;;;;;;;13.48;73.67;100971.22;4974155;28;20445;-75